Time,TemperatureF,DewpointF,PressureIn,WindDirection,WindDirectionDegrees,WindSpeedMPH,WindSpeedGustMPH,Humidity,HourlyPrecipIn,Conditions,Clouds,dailyrainin,SoftwareType,DateUTC
2013-11-18 00:01:00,44.5,40.0,29.96,NW,318,5.0,5.0,84,0.00,,,0.01,Wunderground v.1.15,2013-11-18 06:01:00,
2013-11-18 00:07:00,44.3,39.8,29.96,NW,323,5.0,6.0,84,0.00,,,0.00,Wunderground v.1.15,2013-11-18 06:07:00,
2013-11-18 00:13:00,44.2,39.7,29.97,NW,319,5.0,6.0,84,0.00,,,0.00,Wunderground v.1.15,2013-11-18 06:13:00,
2013-11-18 00:17:00,44.0,39.5,29.97,NW,319,5.0,6.0,84,0.00,,,0.00,Wunderground v.1.15,2013-11-18 06:17:00,
2013-11-18 00:23:00,43.7,39.2,29.97,NW,319,5.0,5.0,84,0.00,,,0.00,Wunderground v.1.15,2013-11-18 06:23:00,
2013-11-18 00:28:00,43.5,39.3,29.97,NW,319,5.0,5.0,85,0.00,,,0.00,Wunderground v.1.15,2013-11-18 06:28:00,
2013-11-18 00:33:00,43.1,38.9,29.97,NW,319,4.0,9.0,85,0.00,,,0.00,Wunderground v.1.15,2013-11-18 06:33:00,
2013-11-18 00:39:00,43.1,39.2,29.97,NW,319,4.0,9.0,86,0.00,,,0.00,Wunderground v.1.15,2013-11-18 06:39:00,
2013-11-18 00:45:00,43.2,39.0,29.97,NW,319,5.0,9.0,85,0.00,,,0.00,Wunderground v.1.15,2013-11-18 06:45:00,
2013-11-18 00:50:00,43.1,38.9,29.97,NW,319,5.0,9.0,85,0.00,,,0.00,Wunderground v.1.15,2013-11-18 06:50:00,
2013-11-18 00:56:00,43.1,38.9,29.97,NW,319,5.0,9.0,85,0.00,,,0.00,Wunderground v.1.15,2013-11-18 06:56:00,
2013-11-18 01:01:00,43.1,38.9,29.97,NW,319,5.0,9.0,85,0.00,,,0.00,Wunderground v.1.15,2013-11-18 07:01:00,
2013-11-18 01:07:00,42.9,38.7,29.98,NW,319,5.0,9.0,85,0.00,,,0.00,Wunderground v.1.15,2013-11-18 07:07:00,
2013-11-18 01:12:00,42.8,38.9,29.97,NW,319,5.0,9.0,86,0.00,,,0.00,Wunderground v.1.15,2013-11-18 07:12:00,
2013-11-18 01:18:00,42.9,38.7,29.97,NW,319,4.0,9.0,85,0.00,,,0.00,Wunderground v.1.15,2013-11-18 07:18:00,
2013-11-18 01:23:00,43.0,38.8,29.97,NW,319,4.0,9.0,85,0.00,,,0.00,Wunderground v.1.15,2013-11-18 07:23:00,
2013-11-18 01:29:00,42.7,38.5,29.98,NW,319,4.0,9.0,85,0.00,,,0.00,Wunderground v.1.15,2013-11-18 07:29:00,
2013-11-18 01:34:00,42.5,38.6,29.98,NW,319,4.0,9.0,86,0.00,,,0.00,Wunderground v.1.15,2013-11-18 07:34:00,
2013-11-18 01:40:00,42.5,38.6,29.98,NW,319,4.0,9.0,86,0.00,,,0.00,Wunderground v.1.15,2013-11-18 07:40:00,
2013-11-18 01:45:00,42.6,38.7,29.98,NW,319,4.0,9.0,86,0.00,,,0.00,Wunderground v.1.15,2013-11-18 07:45:00,
2013-11-18 01:51:00,42.8,38.6,29.98,NW,319,5.0,9.0,85,0.00,,,0.00,Wunderground v.1.15,2013-11-18 07:51:00,
2013-11-18 01:56:00,43.0,38.8,29.98,NW,320,5.0,9.0,85,0.00,,,0.00,Wunderground v.1.15,2013-11-18 07:56:00,
2013-11-18 02:02:00,43.1,38.6,29.99,NW,319,4.0,9.0,84,0.00,,,0.00,Wunderground v.1.15,2013-11-18 08:02:00,
2013-11-18 02:07:00,43.2,38.4,29.99,NW,319,4.0,9.0,83,0.00,,,0.00,Wunderground v.1.15,2013-11-18 08:07:00,
2013-11-18 02:12:00,43.3,38.5,29.99,NW,320,4.0,9.0,83,0.00,,,0.00,Wunderground v.1.15,2013-11-18 08:12:00,
2013-11-18 02:18:00,43.2,38.4,29.99,NW,320,4.0,9.0,83,0.00,,,0.00,Wunderground v.1.15,2013-11-18 08:18:00,
2013-11-18 02:23:00,43.0,38.2,29.99,NW,319,3.0,9.0,83,0.00,,,0.00,Wunderground v.1.15,2013-11-18 08:23:00,
2013-11-18 02:29:00,42.8,38.0,29.99,NW,319,3.0,9.0,83,0.00,,,0.00,Wunderground v.1.15,2013-11-18 08:29:00,
2013-11-18 02:34:00,42.5,37.7,29.99,NW,319,2.0,9.0,83,0.00,,,0.00,Wunderground v.1.15,2013-11-18 08:34:00,
2013-11-18 02:40:00,42.3,37.8,30.00,NW,319,2.0,2.0,84,0.00,,,0.00,Wunderground v.1.15,2013-11-18 08:40:00,
2013-11-18 02:45:00,41.5,36.7,30.00,NW,319,1.0,9.0,83,0.00,,,0.00,Wunderground v.1.15,2013-11-18 08:45:00,
2013-11-18 02:51:00,40.8,36.9,30.00,NW,319,1.0,9.0,86,0.00,,,0.00,Wunderground v.1.15,2013-11-18 08:51:00,
2013-11-18 02:56:00,40.7,37.1,30.00,NW,319,1.0,9.0,87,0.00,,,0.00,Wunderground v.1.15,2013-11-18 08:56:00,
2013-11-18 03:02:00,40.8,37.5,30.01,NW,319,2.0,9.0,88,0.00,,,0.00,Wunderground v.1.15,2013-11-18 09:02:00,
2013-11-18 03:07:00,40.9,37.6,30.01,NW,319,3.0,9.0,88,0.00,,,0.00,Wunderground v.1.15,2013-11-18 09:07:00,
2013-11-18 03:13:00,40.9,37.6,30.00,NW,319,3.0,9.0,88,0.00,,,0.00,Wunderground v.1.15,2013-11-18 09:13:00,
2013-11-18 03:19:00,40.9,37.6,30.01,NW,319,3.0,9.0,88,0.00,,,0.00,Wunderground v.1.15,2013-11-18 09:19:00,
2013-11-18 03:24:00,40.9,37.6,30.00,NW,319,3.0,9.0,88,0.00,,,0.00,Wunderground v.1.15,2013-11-18 09:24:00,
2013-11-18 03:29:00,41.0,37.4,30.01,NW,321,4.0,9.0,87,0.00,,,0.00,Wunderground v.1.15,2013-11-18 09:29:00,
2013-11-18 03:35:00,40.9,37.3,30.01,NW,322,4.0,9.0,87,0.00,,,0.00,Wunderground v.1.15,2013-11-18 09:35:00,
2013-11-18 03:40:00,40.9,37.3,30.01,NW,322,4.0,9.0,87,0.00,,,0.00,Wunderground v.1.15,2013-11-18 09:40:00,
2013-11-18 03:46:00,40.8,37.2,30.01,NW,322,4.0,9.0,87,0.00,,,0.00,Wunderground v.1.15,2013-11-18 09:46:00,
2013-11-18 03:51:00,40.7,37.1,30.01,NW,322,4.0,9.0,87,0.00,,,0.00,Wunderground v.1.15,2013-11-18 09:51:00,
2013-11-18 03:57:00,40.6,37.0,30.02,NW,323,4.0,9.0,87,0.00,,,0.00,Wunderground v.1.15,2013-11-18 09:57:00,
2013-11-18 04:02:00,40.5,36.9,30.02,NW,322,4.0,9.0,87,0.00,,,0.00,Wunderground v.1.15,2013-11-18 10:02:00,
2013-11-18 04:08:00,40.4,36.8,30.02,NW,322,4.0,9.0,87,0.00,,,0.00,Wunderground v.1.15,2013-11-18 10:08:00,
2013-11-18 04:13:00,40.3,36.7,30.02,NW,322,5.0,9.0,87,0.00,,,0.00,Wunderground v.1.15,2013-11-18 10:13:00,
2013-11-18 04:19:00,40.1,36.5,30.03,NW,322,4.0,9.0,87,0.00,,,0.00,Wunderground v.1.15,2013-11-18 10:19:00,
2013-11-18 04:25:00,40.0,36.4,30.03,NW,323,5.0,9.0,87,0.00,,,0.00,Wunderground v.1.15,2013-11-18 10:25:00,
2013-11-18 04:31:00,39.8,36.2,30.03,NW,323,4.0,9.0,87,0.00,,,0.00,Wunderground v.1.15,2013-11-18 10:31:00,
2013-11-18 04:37:00,39.6,36.0,30.04,NW,321,4.0,9.0,87,0.00,,,0.00,Wunderground v.1.15,2013-11-18 10:37:00,
2013-11-18 04:42:00,39.4,36.1,30.04,NW,321,5.0,9.0,88,0.00,,,0.00,Wunderground v.1.15,2013-11-18 10:42:00,
2013-11-18 04:48:00,39.4,36.1,30.04,NW,321,5.0,9.0,88,0.00,,,0.00,Wunderground v.1.15,2013-11-18 10:48:00,
2013-11-18 04:53:00,39.4,36.1,30.04,NW,321,5.0,9.0,88,0.00,,,0.00,Wunderground v.1.15,2013-11-18 10:53:00,
2013-11-18 04:59:00,39.3,36.0,30.04,NW,321,5.0,9.0,88,0.00,,,0.00,Wunderground v.1.15,2013-11-18 10:59:00,
2013-11-18 05:04:00,39.1,35.8,30.04,NW,320,5.0,9.0,88,0.00,,,0.00,Wunderground v.1.15,2013-11-18 11:04:00,
2013-11-18 05:10:00,39.2,35.9,30.05,NW,319,5.0,9.0,88,0.00,,,0.00,Wunderground v.1.15,2013-11-18 11:10:00,
2013-11-18 05:15:00,39.2,35.9,30.05,NW,319,5.0,9.0,88,0.00,,,0.00,Wunderground v.1.15,2013-11-18 11:15:00,
2013-11-18 05:21:00,39.2,35.9,30.05,NW,316,6.0,6.0,88,0.00,,,0.00,Wunderground v.1.15,2013-11-18 11:21:00,
2013-11-18 05:26:00,39.2,35.9,30.05,NW,323,5.0,9.0,88,0.00,,,0.00,Wunderground v.1.15,2013-11-18 11:26:00,
2013-11-18 05:32:00,39.1,35.6,30.05,NW,316,5.0,9.0,87,0.00,,,0.00,Wunderground v.1.15,2013-11-18 11:32:00,
2013-11-18 05:37:00,38.9,35.4,30.05,NW,315,5.0,9.0,87,0.00,,,0.00,Wunderground v.1.15,2013-11-18 11:37:00,
2013-11-18 05:43:00,38.7,35.5,30.05,NW,317,5.0,9.0,88,0.00,,,0.00,Wunderground v.1.15,2013-11-18 11:43:00,
2013-11-18 05:50:00,38.4,35.2,30.05,NW,317,5.0,9.0,88,0.00,,,0.00,Wunderground v.1.15,2013-11-18 11:50:00,
2013-11-18 05:56:00,38.3,35.1,30.05,NW,317,5.0,9.0,88,0.00,,,0.00,Wunderground v.1.15,2013-11-18 11:56:00,
2013-11-18 06:02:00,38.2,35.0,30.05,NW,317,4.0,9.0,88,0.00,,,0.00,Wunderground v.1.15,2013-11-18 12:02:00,
2013-11-18 06:07:00,38.2,35.0,30.05,NW,317,4.0,9.0,88,0.00,,,0.00,Wunderground v.1.15,2013-11-18 12:07:00,
2013-11-18 06:13:00,38.0,34.8,30.06,NW,317,4.0,9.0,88,0.00,,,0.00,Wunderground v.1.15,2013-11-18 12:13:00,
2013-11-18 06:18:00,38.0,34.8,30.06,NW,321,5.0,9.0,88,0.00,,,0.00,Wunderground v.1.15,2013-11-18 12:18:00,
2013-11-18 06:24:00,37.9,34.7,30.07,NW,324,5.0,9.0,88,0.00,,,0.00,Wunderground v.1.15,2013-11-18 12:24:00,
2013-11-18 06:29:00,37.8,34.6,30.07,NW,315,5.0,9.0,88,0.00,,,0.00,Wunderground v.1.15,2013-11-18 12:29:00,
2013-11-18 06:35:00,37.6,34.4,30.07,NW,308,6.0,9.0,88,0.00,,,0.00,Wunderground v.1.15,2013-11-18 12:35:00,
2013-11-18 06:40:00,37.6,34.4,30.07,NW,313,6.0,6.0,88,0.00,,,0.00,Wunderground v.1.15,2013-11-18 12:40:00,
2013-11-18 06:46:00,37.3,34.1,30.08,NW,313,5.0,9.0,88,0.00,,,0.00,Wunderground v.1.15,2013-11-18 12:46:00,
2013-11-18 06:51:00,37.1,34.2,30.08,NW,313,5.0,9.0,89,0.00,,,0.00,Wunderground v.1.15,2013-11-18 12:51:00,
2013-11-18 06:57:00,37.1,34.2,30.09,NW,315,5.0,9.0,89,0.00,,,0.00,Wunderground v.1.15,2013-11-18 12:57:00,
2013-11-18 07:02:00,36.8,33.9,30.09,NW,315,5.0,9.0,89,0.00,,,0.00,Wunderground v.1.15,2013-11-18 13:02:00,
2013-11-18 07:08:00,36.7,33.8,30.09,NW,315,4.0,9.0,89,0.00,,,0.00,Wunderground v.1.15,2013-11-18 13:08:00,
2013-11-18 07:13:00,36.6,33.9,30.10,NW,315,5.0,9.0,90,0.00,,,0.00,Wunderground v.1.15,2013-11-18 13:13:00,
2013-11-18 07:19:00,36.8,34.1,30.10,NW,315,5.0,9.0,90,0.00,,,0.00,Wunderground v.1.15,2013-11-18 13:19:00,
2013-11-18 07:24:00,36.9,34.2,30.10,NW,313,6.0,9.0,90,0.00,,,0.00,Wunderground v.1.15,2013-11-18 13:24:00,
2013-11-18 07:30:00,37.1,34.4,30.11,NW,305,6.0,9.0,90,0.00,,,0.00,Wunderground v.1.15,2013-11-18 13:30:00,
2013-11-18 07:36:00,37.3,34.4,30.12,WNW,300,6.0,9.0,89,0.00,,,0.00,Wunderground v.1.15,2013-11-18 13:36:00,
2013-11-18 07:41:00,37.6,34.7,30.12,NW,304,7.0,9.0,89,0.00,,,0.00,Wunderground v.1.15,2013-11-18 13:41:00,
2013-11-18 07:46:00,37.9,34.9,30.12,NW,315,7.0,9.0,89,0.00,,,0.00,Wunderground v.1.15,2013-11-18 13:46:00,
2013-11-18 07:52:00,38.2,35.0,30.13,WNW,300,7.0,9.0,88,0.00,,,0.00,Wunderground v.1.15,2013-11-18 13:52:00,
2013-11-18 07:58:00,38.6,35.1,30.13,NW,315,7.0,9.0,87,0.00,,,0.00,Wunderground v.1.15,2013-11-18 13:58:00,
2013-11-18 08:03:00,38.9,35.1,30.14,NW,319,7.0,9.0,86,0.00,,,0.00,Wunderground v.1.15,2013-11-18 14:03:00,
2013-11-18 08:08:00,39.1,35.3,30.14,NW,307,6.0,9.0,86,0.00,,,0.00,Wunderground v.1.15,2013-11-18 14:08:00,
2013-11-18 08:14:00,39.5,35.4,30.15,NW,322,7.0,10.0,85,0.00,,,0.00,Wunderground v.1.15,2013-11-18 14:14:00,
2013-11-18 08:19:00,39.8,35.4,30.15,NW,313,9.0,14.0,84,0.00,,,0.00,Wunderground v.1.15,2013-11-18 14:19:00,
2013-11-18 08:25:00,40.2,35.8,30.16,NW,313,8.0,10.0,84,0.00,,,0.00,Wunderground v.1.15,2013-11-18 14:25:00,
2013-11-18 08:30:00,40.5,35.7,30.16,NW,313,8.0,14.0,83,0.00,,,0.00,Wunderground v.1.15,2013-11-18 14:30:00,
2013-11-18 08:36:00,40.7,35.9,30.16,WNW,303,9.0,14.0,83,0.00,,,0.00,Wunderground v.1.15,2013-11-18 14:36:00,
2013-11-18 08:41:00,40.9,35.5,30.16,NW,307,9.0,15.0,81,0.00,,,0.00,Wunderground v.1.15,2013-11-18 14:41:00,
2013-11-18 08:47:00,41.1,35.7,30.17,NW,317,8.0,15.0,81,0.00,,,0.00,Wunderground v.1.15,2013-11-18 14:47:00,
2013-11-18 08:53:00,41.4,35.7,30.17,NW,322,8.0,9.0,80,0.00,,,0.00,Wunderground v.1.15,2013-11-18 14:53:00,
2013-11-18 08:59:00,41.8,35.8,30.18,NNW,340,7.0,9.0,79,0.00,,,0.00,Wunderground v.1.15,2013-11-18 14:59:00,
2013-11-18 09:05:00,42.2,35.8,30.18,NW,315,7.0,9.0,78,0.00,,,0.00,Wunderground v.1.15,2013-11-18 15:05:00,
2013-11-18 09:10:00,42.3,35.3,30.18,NE,48,8.0,8.0,76,0.00,,,0.00,Wunderground v.1.15,2013-11-18 15:10:00,
2013-11-18 09:16:00,42.8,35.1,30.19,NW,321,7.0,11.0,74,0.00,,,0.00,Wunderground v.1.15,2013-11-18 15:16:00,
2013-11-18 09:21:00,42.8,35.1,30.19,WNW,299,7.0,9.0,74,0.00,,,0.00,Wunderground v.1.15,2013-11-18 15:21:00,
2013-11-18 09:27:00,42.9,35.2,30.19,NNW,338,7.0,9.0,74,0.00,,,0.00,Wunderground v.1.15,2013-11-18 15:27:00,
2013-11-18 09:32:00,43.3,35.2,30.20,West,273,6.0,9.0,73,0.00,,,0.00,Wunderground v.1.15,2013-11-18 15:32:00,
2013-11-18 09:38:00,43.4,35.3,30.20,ENE,77,6.0,12.0,73,0.00,,,0.00,Wunderground v.1.15,2013-11-18 15:38:00,
2013-11-18 09:43:00,43.4,35.3,30.20,NNW,344,7.0,9.0,73,0.00,,,0.00,Wunderground v.1.15,2013-11-18 15:43:00,
2013-11-18 09:51:00,43.8,35.7,30.21,NW,316,6.0,9.0,73,0.00,,,0.00,Wunderground v.1.15,2013-11-18 15:51:00,
2013-11-18 09:56:00,43.8,35.4,30.21,WSW,257,6.0,13.0,72,0.00,,,0.00,Wunderground v.1.15,2013-11-18 15:56:00,
2013-11-18 09:59:00,44.0,35.6,30.21,NW,318,6.0,13.0,72,0.00,,,0.00,Wunderground v.1.15,2013-11-18 15:59:00,
2013-11-18 10:04:00,44.3,35.8,30.21,NNW,346,6.0,9.0,72,0.00,,,0.00,Wunderground v.1.15,2013-11-18 16:04:00,
2013-11-18 10:09:00,44.6,35.1,30.21,NW,314,6.0,9.0,69,0.00,,,0.00,Wunderground v.1.15,2013-11-18 16:09:00,
2013-11-18 10:15:00,44.9,35.7,30.22,WNW,291,6.0,9.0,70,0.00,,,0.00,Wunderground v.1.15,2013-11-18 16:15:00,
2013-11-18 10:21:00,44.8,34.9,30.22,NNE,31,6.0,9.0,68,0.00,,,0.00,Wunderground v.1.15,2013-11-18 16:21:00,
2013-11-18 10:26:00,45.2,34.9,30.22,NW,318,6.0,12.0,67,0.00,,,0.00,Wunderground v.1.15,2013-11-18 16:26:00,
2013-11-18 10:32:00,45.5,34.4,30.22,SE,133,6.0,9.0,65,0.00,,,0.00,Wunderground v.1.15,2013-11-18 16:32:00,
2013-11-18 10:38:00,45.6,34.5,30.22,NE,52,6.0,9.0,65,0.00,,,0.00,Wunderground v.1.15,2013-11-18 16:38:00,
2013-11-18 10:44:00,45.9,34.4,30.22,ENE,63,6.0,9.0,64,0.00,,,0.00,Wunderground v.1.15,2013-11-18 16:44:00,
2013-11-18 10:49:00,46.1,34.2,30.22,NW,315,6.0,9.0,63,0.00,,,0.00,Wunderground v.1.15,2013-11-18 16:49:00,
2013-11-18 10:55:00,46.4,34.5,30.22,NW,309,5.0,10.0,63,0.00,,,0.00,Wunderground v.1.15,2013-11-18 16:55:00,
2013-11-18 11:00:00,46.7,34.4,30.22,NW,319,6.0,9.0,62,0.00,,,0.00,Wunderground v.1.15,2013-11-18 17:00:00,
2013-11-18 11:06:00,46.9,35.0,30.22,NNW,329,5.0,9.0,63,0.00,,,0.00,Wunderground v.1.15,2013-11-18 17:06:00,
2013-11-18 11:11:00,47.6,35.6,30.22,WNW,286,5.0,9.0,63,0.00,,,0.00,Wunderground v.1.15,2013-11-18 17:11:00,
2013-11-18 11:17:00,47.8,35.4,30.22,ENE,71,5.0,9.0,62,0.00,,,0.00,Wunderground v.1.15,2013-11-18 17:17:00,
2013-11-18 11:22:00,48.1,34.4,30.22,NNW,338,5.0,12.0,59,0.00,,,0.00,Wunderground v.1.15,2013-11-18 17:22:00,
2013-11-18 11:28:00,48.1,34.0,30.22,NW,315,6.0,12.0,58,0.00,,,0.00,Wunderground v.1.15,2013-11-18 17:28:00,
2013-11-18 11:33:00,48.2,33.7,30.22,NNW,343,5.0,9.0,57,0.00,,,0.00,Wunderground v.1.15,2013-11-18 17:33:00,
2013-11-18 11:39:00,48.4,34.3,30.22,ENE,75,6.0,9.0,58,0.00,,,0.00,Wunderground v.1.15,2013-11-18 17:39:00,
2013-11-18 11:44:00,48.5,33.5,30.21,WNW,303,7.0,9.0,56,0.00,,,0.00,Wunderground v.1.15,2013-11-18 17:44:00,
2013-11-18 11:50:00,49.2,34.6,30.21,NW,313,5.0,9.0,57,0.00,,,0.00,Wunderground v.1.15,2013-11-18 17:50:00,
2013-11-18 11:56:00,49.7,34.2,30.21,NW,317,5.0,9.0,55,0.00,,,0.00,Wunderground v.1.15,2013-11-18 17:56:00,
2013-11-18 12:01:00,49.9,33.4,30.21,WNW,300,6.0,10.0,53,0.00,,,0.00,Wunderground v.1.15,2013-11-18 18:01:00,
2013-11-18 12:08:00,50.1,34.1,30.21,NNW,332,6.0,10.0,54,0.00,,,0.00,Wunderground v.1.15,2013-11-18 18:08:00,
2013-11-18 12:14:00,50.5,33.5,30.21,ENE,76,6.0,12.0,52,0.00,,,0.00,Wunderground v.1.15,2013-11-18 18:14:00,
2013-11-18 12:20:00,50.8,33.3,30.21,North,350,6.0,6.0,51,0.00,,,0.00,Wunderground v.1.15,2013-11-18 18:20:00,
2013-11-18 12:25:00,51.0,33.0,30.21,SE,126,6.0,9.0,50,0.00,,,0.00,Wunderground v.1.15,2013-11-18 18:25:00,
2013-11-18 12:31:00,51.2,32.7,30.21,North,355,6.0,10.0,49,0.00,,,0.00,Wunderground v.1.15,2013-11-18 18:31:00,
2013-11-18 12:37:00,51.6,33.6,30.21,NNE,23,6.0,10.0,50,0.00,,,0.00,Wunderground v.1.15,2013-11-18 18:37:00,
2013-11-18 12:42:00,51.7,33.1,30.21,East,93,5.0,9.0,49,0.00,,,0.00,Wunderground v.1.15,2013-11-18 18:42:00,
2013-11-18 12:47:00,51.8,33.2,30.21,NW,312,5.0,9.0,49,0.00,,,0.00,Wunderground v.1.15,2013-11-18 18:47:00,
2013-11-18 12:53:00,51.8,32.7,30.20,NNW,327,5.0,9.0,48,0.00,,,0.00,Wunderground v.1.15,2013-11-18 18:53:00,
2013-11-18 12:58:00,52.0,32.4,30.20,West,279,5.0,10.0,47,0.00,,,0.00,Wunderground v.1.15,2013-11-18 18:58:00,
2013-11-18 13:04:00,52.0,31.8,30.20,North,355,6.0,10.0,46,0.00,,,0.00,Wunderground v.1.15,2013-11-18 19:04:00,
2013-11-18 13:09:00,51.9,31.7,30.20,SSW,197,6.0,10.0,46,0.00,,,0.00,Wunderground v.1.15,2013-11-18 19:09:00,
2013-11-18 13:22:00,52.2,31.5,30.20,NW,313,5.0,11.0,45,0.00,,,0.00,Wunderground v.1.15,2013-11-18 19:22:00,
2013-11-18 13:31:00,52.6,31.8,30.21,North,360,6.0,9.0,45,0.00,,,0.00,Wunderground v.1.15,2013-11-18 19:31:00,
2013-11-18 13:37:00,52.6,31.8,30.20,SSE,157,6.0,9.0,45,0.00,,,0.00,Wunderground v.1.15,2013-11-18 19:37:00,
2013-11-18 13:42:00,52.4,31.7,30.20,East,88,7.0,9.0,45,0.00,,,0.00,Wunderground v.1.15,2013-11-18 19:42:00,
2013-11-18 13:48:00,52.5,31.2,30.20,North,360,7.0,9.0,44,0.00,,,0.00,Wunderground v.1.15,2013-11-18 19:48:00,
2013-11-18 13:53:00,52.5,31.8,30.20,East,84,7.0,10.0,45,0.00,,,0.00,Wunderground v.1.15,2013-11-18 19:53:00,
2013-11-18 13:59:00,52.6,31.3,30.21,NE,50,8.0,10.0,44,0.00,,,0.00,Wunderground v.1.15,2013-11-18 19:59:00,
2013-11-18 14:04:00,52.4,31.1,30.20,ENE,64,9.0,12.0,44,0.00,,,0.00,Wunderground v.1.15,2013-11-18 20:04:00,
2013-11-18 14:10:00,52.5,31.8,30.21,NE,49,8.0,8.0,45,0.00,,,0.00,Wunderground v.1.15,2013-11-18 20:10:00,
2013-11-18 14:15:00,52.9,32.1,30.21,ENE,61,6.0,9.0,45,0.00,,,0.00,Wunderground v.1.15,2013-11-18 20:15:00,
2013-11-18 14:21:00,52.8,31.5,30.21,East,90,6.0,11.0,44,0.00,,,0.00,Wunderground v.1.15,2013-11-18 20:21:00,
2013-11-18 14:26:00,53.0,31.6,30.21,ENE,62,7.0,11.0,44,0.00,,,0.00,Wunderground v.1.15,2013-11-18 20:26:00,
2013-11-18 14:32:00,52.8,31.5,30.21,WSW,245,7.0,9.0,44,0.00,,,0.00,Wunderground v.1.15,2013-11-18 20:32:00,
2013-11-18 14:37:00,52.8,31.5,30.21,NNE,15,6.0,9.0,44,0.00,,,0.00,Wunderground v.1.15,2013-11-18 20:37:00,
2013-11-18 14:43:00,52.7,31.9,30.21,NE,36,5.0,9.0,45,0.00,,,0.00,Wunderground v.1.15,2013-11-18 20:43:00,
2013-11-18 14:48:00,52.8,30.9,30.21,North,5,5.0,9.0,43,0.00,,,0.00,Wunderground v.1.15,2013-11-18 20:48:00,
2013-11-18 14:54:00,52.9,31.6,30.21,NE,34,5.0,9.0,44,0.00,,,0.00,Wunderground v.1.15,2013-11-18 20:54:00,
2013-11-18 14:59:00,53.0,32.2,30.21,ENE,57,4.0,9.0,45,0.00,,,0.00,Wunderground v.1.15,2013-11-18 20:59:00,
2013-11-18 15:05:00,52.9,31.6,30.21,NE,44,5.0,9.0,44,0.00,,,0.00,Wunderground v.1.15,2013-11-18 21:05:00,
2013-11-18 15:10:00,52.8,32.0,30.21,NNW,327,5.0,5.0,45,0.00,,,0.00,Wunderground v.1.15,2013-11-18 21:10:00,
2013-11-18 15:16:00,53.0,32.2,30.21,NE,38,4.0,9.0,45,0.00,,,0.00,Wunderground v.1.15,2013-11-18 21:16:00,
2013-11-18 15:22:00,52.8,32.0,30.21,NE,39,4.0,9.0,45,0.00,,,0.00,Wunderground v.1.15,2013-11-18 21:22:00,
2013-11-18 15:27:00,52.9,32.1,30.22,ENE,57,3.0,9.0,45,0.00,,,0.00,Wunderground v.1.15,2013-11-18 21:27:00,
2013-11-18 15:33:00,52.9,32.7,30.22,ENE,66,3.0,9.0,46,0.00,,,0.00,Wunderground v.1.15,2013-11-18 21:33:00,
2013-11-18 15:38:00,52.8,32.0,30.22,NE,55,3.0,9.0,45,0.00,,,0.00,Wunderground v.1.15,2013-11-18 21:38:00,
2013-11-18 15:44:00,52.4,32.2,30.22,NE,51,4.0,9.0,46,0.00,,,0.00,Wunderground v.1.15,2013-11-18 21:44:00,
2013-11-18 15:49:00,52.2,31.5,30.22,NW,319,4.0,9.0,45,0.00,,,0.00,Wunderground v.1.15,2013-11-18 21:49:00,
2013-11-18 15:55:00,51.9,31.7,30.22,ENE,69,4.0,9.0,46,0.00,,,0.00,Wunderground v.1.15,2013-11-18 21:55:00,
2013-11-18 16:02:00,51.9,31.7,30.22,NW,305,3.0,9.0,46,0.00,,,0.00,Wunderground v.1.15,2013-11-18 22:02:00,
2013-11-18 16:08:00,51.8,32.2,30.22,NNE,26,1.0,9.0,47,0.00,,,0.00,Wunderground v.1.15,2013-11-18 22:08:00,
2013-11-18 16:13:00,51.5,31.9,30.23,NE,55,1.0,9.0,47,0.00,,,0.00,Wunderground v.1.15,2013-11-18 22:13:00,
2013-11-18 16:19:00,51.0,32.0,30.23,NE,49,2.0,9.0,48,0.00,,,0.00,Wunderground v.1.15,2013-11-18 22:19:00,
2013-11-18 16:24:00,50.7,31.7,30.23,NNE,21,2.0,9.0,48,0.00,,,0.00,Wunderground v.1.15,2013-11-18 22:24:00,
2013-11-18 16:30:00,50.6,31.6,30.23,NE,39,2.0,2.0,48,0.00,,,0.00,Wunderground v.1.15,2013-11-18 22:30:00,
2013-11-18 16:35:00,50.3,32.4,30.23,NNE,29,2.0,9.0,50,0.00,,,0.00,Wunderground v.1.15,2013-11-18 22:35:00,
2013-11-18 16:41:00,49.6,31.7,30.23,NNE,32,1.0,9.0,50,0.00,,,0.00,Wunderground v.1.15,2013-11-18 22:41:00,
2013-11-18 16:46:00,49.0,31.6,30.23,NNE,33,1.0,9.0,51,0.00,,,0.00,Wunderground v.1.15,2013-11-18 22:46:00,
2013-11-18 16:52:00,48.4,31.6,30.23,NNE,33,1.0,9.0,52,0.00,,,0.00,Wunderground v.1.15,2013-11-18 22:52:00,
2013-11-18 16:57:00,47.8,31.5,30.23,NNE,33,1.0,9.0,53,0.00,,,0.00,Wunderground v.1.15,2013-11-18 22:57:00,
2013-11-18 17:03:00,47.3,31.5,30.23,NNE,33,1.0,9.0,54,0.00,,,0.00,Wunderground v.1.15,2013-11-18 23:03:00,
2013-11-18 17:09:00,47.0,31.2,30.24,NNE,33,0.0,9.0,54,0.00,,,0.00,Wunderground v.1.15,2013-11-18 23:09:00,
2013-11-18 17:14:00,46.7,31.4,30.24,NNE,33,1.0,9.0,55,0.00,,,0.00,Wunderground v.1.15,2013-11-18 23:14:00,
2013-11-18 17:20:00,46.4,31.1,30.24,NNE,33,0.0,9.0,55,0.00,,,0.00,Wunderground v.1.15,2013-11-18 23:20:00,
2013-11-18 17:25:00,46.2,30.9,30.24,NNE,33,0.0,9.0,55,0.00,,,0.00,Wunderground v.1.15,2013-11-18 23:25:00,
2013-11-18 17:31:00,46.1,30.8,30.24,NNE,33,0.0,9.0,55,0.00,,,0.00,Wunderground v.1.15,2013-11-18 23:31:00,
2013-11-18 17:37:00,45.8,31.0,30.24,NNE,33,0.0,9.0,56,0.00,,,0.00,Wunderground v.1.15,2013-11-18 23:37:00,
2013-11-18 17:42:00,45.8,31.0,30.24,NNE,33,0.0,9.0,56,0.00,,,0.00,Wunderground v.1.15,2013-11-18 23:42:00,
2013-11-18 17:48:00,45.5,31.1,30.25,NNE,33,0.0,9.0,57,0.00,,,0.00,Wunderground v.1.15,2013-11-18 23:48:00,
2013-11-18 17:53:00,45.2,30.9,30.25,NNE,33,0.0,9.0,57,0.00,,,0.00,Wunderground v.1.15,2013-11-18 23:53:00,
2013-11-18 17:59:00,44.8,30.9,30.25,NNE,33,0.0,9.0,58,0.00,,,0.00,Wunderground v.1.15,2013-11-18 23:59:00,
2013-11-18 18:04:00,44.5,30.6,30.25,NNE,33,0.0,9.0,58,0.00,,,0.00,Wunderground v.1.15,2013-11-19 00:04:00,
2013-11-18 18:09:00,44.2,30.8,30.25,NNE,33,0.0,9.0,59,0.00,,,0.00,Wunderground v.1.15,2013-11-19 00:09:00,
2013-11-18 18:15:00,43.9,30.9,30.25,NNE,33,0.0,9.0,60,0.00,,,0.00,Wunderground v.1.15,2013-11-19 00:15:00,
2013-11-18 18:21:00,43.6,30.6,30.25,NNE,33,0.0,9.0,60,0.00,,,0.00,Wunderground v.1.15,2013-11-19 00:21:00,
2013-11-18 18:26:00,43.3,30.7,30.25,NNE,33,0.0,9.0,61,0.00,,,0.00,Wunderground v.1.15,2013-11-19 00:26:00,
2013-11-18 18:43:00,43.6,30.6,30.25,NNE,33,0.0,9.0,60,0.00,,,0.00,Wunderground v.1.15,2013-11-19 00:43:00,
2013-11-18 18:49:00,43.6,30.6,30.25,NNE,33,0.0,9.0,60,0.00,,,0.00,Wunderground v.1.15,2013-11-19 00:49:00,
2013-11-18 18:54:00,43.4,30.4,30.25,NNE,33,0.0,9.0,60,0.00,,,0.00,Wunderground v.1.15,2013-11-19 00:54:00,
2013-11-18 19:00:00,43.3,31.1,30.26,NNE,33,0.0,9.0,62,0.00,,,0.00,Wunderground v.1.15,2013-11-19 01:00:00,
2013-11-18 19:05:00,42.8,30.7,30.26,NNE,33,0.0,9.0,62,0.00,,,0.00,Wunderground v.1.15,2013-11-19 01:05:00,
2013-11-18 19:10:00,42.4,30.7,30.26,NNE,33,0.0,9.0,63,0.00,,,0.00,Wunderground v.1.15,2013-11-19 01:10:00,
2013-11-18 19:15:00,42.2,30.9,30.26,NNE,33,0.0,9.0,64,0.00,,,0.00,Wunderground v.1.15,2013-11-19 01:15:00,
2013-11-18 19:21:00,42.3,31.0,30.26,NNE,33,0.0,9.0,64,0.00,,,0.00,Wunderground v.1.15,2013-11-19 01:21:00,
2013-11-18 19:26:00,42.5,30.8,30.26,NNE,33,0.0,9.0,63,0.00,,,0.00,Wunderground v.1.15,2013-11-19 01:26:00,
2013-11-18 19:32:00,42.7,30.6,30.26,NNE,33,0.0,9.0,62,0.00,,,0.00,Wunderground v.1.15,2013-11-19 01:32:00,
2013-11-18 19:37:00,42.7,30.6,30.26,NNE,33,0.0,9.0,62,0.00,,,0.00,Wunderground v.1.15,2013-11-19 01:37:00,
2013-11-18 19:43:00,42.8,30.7,30.26,NNE,33,0.0,9.0,62,0.00,,,0.00,Wunderground v.1.15,2013-11-19 01:43:00,
2013-11-18 19:44:00,42.9,30.8,30.26,NNE,33,0.0,9.0,62,0.00,,,0.00,Wunderground v.1.15,2013-11-19 01:44:00,
2013-11-18 19:49:00,43.0,30.9,30.26,NNE,33,0.0,9.0,62,0.00,,,0.00,Wunderground v.1.15,2013-11-19 01:49:00,
2013-11-18 19:58:00,42.8,30.7,30.27,NNE,33,0.0,9.0,62,0.00,,,0.00,Wunderground v.1.15,2013-11-19 01:58:00,
2013-11-18 20:04:00,42.5,30.8,30.27,NNE,33,0.0,9.0,63,0.00,,,0.00,Wunderground v.1.15,2013-11-19 02:04:00,
2013-11-18 20:10:00,42.7,31.0,30.27,NNE,33,1.0,1.0,63,0.00,,,0.00,Wunderground v.1.15,2013-11-19 02:10:00,
2013-11-18 20:16:00,42.6,30.9,30.27,NNE,33,0.0,9.0,63,0.00,,,0.00,Wunderground v.1.15,2013-11-19 02:16:00,
2013-11-18 20:21:00,42.3,31.0,30.27,NNE,33,0.0,9.0,64,0.00,,,0.00,Wunderground v.1.15,2013-11-19 02:21:00,
2013-11-18 20:26:00,41.8,30.5,30.27,NNE,33,0.0,9.0,64,0.00,,,0.00,Wunderground v.1.15,2013-11-19 02:26:00,
2013-11-18 20:31:00,41.3,30.4,30.27,NNE,33,0.0,9.0,65,0.00,,,0.00,Wunderground v.1.15,2013-11-19 02:31:00,
2013-11-18 20:37:00,40.8,30.3,30.28,NNE,33,0.0,9.0,66,0.00,,,0.00,Wunderground v.1.15,2013-11-19 02:37:00,
2013-11-18 20:43:00,40.5,30.4,30.27,NNE,33,0.0,9.0,67,0.00,,,0.00,Wunderground v.1.15,2013-11-19 02:43:00,
2013-11-18 20:48:00,40.2,30.1,30.28,NNE,33,0.0,9.0,67,0.00,,,0.00,Wunderground v.1.15,2013-11-19 02:48:00,
2013-11-18 20:53:00,39.8,30.1,30.28,NNE,33,0.0,9.0,68,0.00,,,0.00,Wunderground v.1.15,2013-11-19 02:53:00,
2013-11-18 20:59:00,39.5,30.2,30.28,NNE,33,0.0,9.0,69,0.00,,,0.00,Wunderground v.1.15,2013-11-19 02:59:00,
2013-11-18 21:04:00,39.2,29.9,30.28,NNE,33,0.0,9.0,69,0.00,,,0.00,Wunderground v.1.15,2013-11-19 03:04:00,
2013-11-18 21:10:00,38.8,29.8,30.28,NNE,33,0.0,9.0,70,0.00,,,0.00,Wunderground v.1.15,2013-11-19 03:10:00,
2013-11-18 21:16:00,38.5,29.9,30.28,NNE,33,0.0,9.0,71,0.00,,,0.00,Wunderground v.1.15,2013-11-19 03:16:00,
2013-11-18 21:21:00,38.2,29.6,30.28,NNE,33,0.0,9.0,71,0.00,,,0.00,Wunderground v.1.15,2013-11-19 03:21:00,
2013-11-18 21:27:00,38.0,29.8,30.29,NNE,33,0.0,9.0,72,0.00,,,0.00,Wunderground v.1.15,2013-11-19 03:27:00,
2013-11-18 21:32:00,38.0,29.8,30.29,NNE,33,0.0,9.0,72,0.00,,,0.00,Wunderground v.1.15,2013-11-19 03:32:00,
2013-11-18 21:39:00,38.0,29.8,30.29,NNE,33,0.0,9.0,72,0.00,,,0.00,Wunderground v.1.15,2013-11-19 03:39:00,
2013-11-18 21:45:00,37.9,29.7,30.29,NNE,33,0.0,9.0,72,0.00,,,0.00,Wunderground v.1.15,2013-11-19 03:45:00,
2013-11-18 21:51:00,37.8,29.6,30.29,NNE,33,0.0,9.0,72,0.00,,,0.00,Wunderground v.1.15,2013-11-19 03:51:00,
2013-11-18 21:56:00,37.4,29.5,30.29,NNE,33,0.0,9.0,73,0.00,,,0.00,Wunderground v.1.15,2013-11-19 03:56:00,
2013-11-18 22:01:00,36.7,29.2,30.29,NNE,33,0.0,9.0,74,0.00,,,0.00,Wunderground v.1.15,2013-11-19 04:01:00,
2013-11-18 22:07:00,36.5,29.3,30.30,NNE,33,0.0,9.0,75,0.00,,,0.00,Wunderground v.1.15,2013-11-19 04:07:00,
2013-11-18 22:12:00,36.7,29.5,30.30,NNE,33,0.0,9.0,75,0.00,,,0.00,Wunderground v.1.15,2013-11-19 04:12:00,
2013-11-18 22:14:00,36.9,29.7,30.30,NNE,33,0.0,9.0,75,0.00,,,0.00,Wunderground v.1.15,2013-11-19 04:14:00,
2013-11-18 22:19:00,37.3,29.8,30.29,NNE,33,0.0,9.0,74,0.00,,,0.00,Wunderground v.1.15,2013-11-19 04:19:00,
2013-11-18 22:25:00,37.5,29.6,30.29,NNE,33,0.0,9.0,73,0.00,,,0.00,Wunderground v.1.15,2013-11-19 04:25:00,
2013-11-18 22:31:00,37.6,29.7,30.30,NNE,33,0.0,9.0,73,0.00,,,0.00,Wunderground v.1.15,2013-11-19 04:31:00,
2013-11-18 22:37:00,37.7,29.5,30.30,NNE,33,0.0,9.0,72,0.00,,,0.00,Wunderground v.1.15,2013-11-19 04:37:00,
2013-11-18 22:42:00,37.7,29.5,30.30,NNE,33,0.0,9.0,72,0.00,,,0.00,Wunderground v.1.15,2013-11-19 04:42:00,
2013-11-18 22:47:00,37.8,29.2,30.30,NNE,33,0.0,9.0,71,0.00,,,0.00,Wunderground v.1.15,2013-11-19 04:47:00,
2013-11-18 22:53:00,37.8,29.2,30.30,NNE,33,0.0,9.0,71,0.00,,,0.00,Wunderground v.1.15,2013-11-19 04:53:00,
2013-11-18 22:59:00,37.5,29.3,30.29,NNE,33,0.0,9.0,72,0.00,,,0.00,Wunderground v.1.15,2013-11-19 04:59:00,
2013-11-18 23:01:00,37.5,29.3,30.29,NNE,33,0.0,9.0,72,0.00,,,0.00,Wunderground v.1.15,2013-11-19 05:01:00,
2013-11-18 23:02:00,37.5,29.3,30.29,NNE,33,0.0,9.0,72,0.00,,,0.00,Wunderground v.1.15,2013-11-19 05:02:00,
2013-11-18 23:03:00,37.5,29.3,30.29,NNE,33,0.0,9.0,72,0.00,,,0.00,Wunderground v.1.15,2013-11-19 05:03:00,
2013-11-18 23:05:00,37.5,29.3,30.29,NNE,33,0.0,9.0,72,0.00,,,0.00,Wunderground v.1.15,2013-11-19 05:05:00,
2013-11-18 23:15:00,37.7,29.5,30.29,NNE,33,0.0,9.0,72,0.00,,,0.00,Wunderground v.1.15,2013-11-19 05:15:00,
2013-11-18 23:20:00,37.6,29.4,30.29,NNE,33,0.0,9.0,72,0.00,,,0.00,Wunderground v.1.15,2013-11-19 05:20:00,
2013-11-18 23:32:00,37.3,29.1,30.30,NNE,33,0.0,9.0,72,0.00,,,0.00,Wunderground v.1.15,2013-11-19 05:32:00,
2013-11-18 23:38:00,37.1,28.9,30.30,NNE,33,0.0,9.0,72,0.00,,,0.00,Wunderground v.1.15,2013-11-19 05:38:00,
2013-11-18 23:43:00,36.9,28.7,30.30,NNE,33,0.0,9.0,72,0.00,,,0.00,Wunderground v.1.15,2013-11-19 05:43:00,
2013-11-18 23:49:00,36.3,28.8,30.30,NNE,33,0.0,9.0,74,0.00,,,0.00,Wunderground v.1.15,2013-11-19 05:49:00,
2013-11-18 23:54:00,36.0,28.8,30.30,NNE,33,0.0,9.0,75,0.00,,,0.00,Wunderground v.1.15,2013-11-19 05:54:00,